Time;durP1;ratioP1;P1;durP2;ratioP2;P2;SDS_P1;SDS_P2;PMS_P1;PMS_P2;Temp;Humidity;BMP_temperature;BMP_pressure;BME280_temperature;BME280_humidity;BME280_pressure;Samples;Min_cycle;Max_cycle;Signal;HPM_P1;HPM_P2
2024/03/09 00:01:54;;;;;;;88.70;32.20;;;;;;;0.39;100.00;100750.95;215025;1288;96864;-82
2024/03/09 00:06:55;;;;;;;79.60;32.80;;;;;;;0.36;100.00;100746.93;213789;1289;139813;-82
2024/03/09 00:11:55;;;;;;;66.60;29.00;;;;;;;0.32;100.00;100740.05;213626;1289;139162;-82
2024/03/09 00:16:56;;;;;;;61.20;27.50;;;;;;;0.28;100.00;100739.30;213125;1292;141366;-82
2024/03/09 00:21:56;;;;;;;70.50;29.70;;;;;;;0.25;100.00;100735.48;213571;1289;138841;-82
2024/03/09 00:26:57;;;;;;;70.60;30.20;;;;;;;0.20;100.00;100730.20;213225;1289;140819;-82
2024/03/09 00:31:57;;;;;;;67.80;29.30;;;;;;;0.16;100.00;100723.20;213903;1289;97947;-83
2024/03/09 00:36:58;;;;;;;64.10;26.70;;;;;;;0.10;100.00;100724.02;213540;1294;140417;-82
2024/03/09 00:41:59;;;;;;;67.30;29.40;;;;;;;0.05;100.00;100722.18;214358;1292;139550;-83
2024/03/09 00:47:00;;;;;;;77.70;30.60;;;;;;;0.00;100.00;100716.20;213865;1289;139445;-83
2024/03/09 00:52:05;;;;;;;307.40;79.50;;;;;;;-0.04;100.00;100710.23;214066;1291;139503;-83
2024/03/09 00:57:06;;;;;;;193.60;58.10;;;;;;;-0.09;100.00;100707.45;213195;1292;140527;-83
2024/03/09 01:02:06;;;;;;;144.10;45.00;;;;;;;-0.13;100.00;100704.69;214424;1289;96552;-82
2024/03/09 01:07:07;;;;;;;135.70;42.60;;;;;;;-0.16;100.00;100691.86;214799;1289;140587;-82
2024/03/09 01:12:07;;;;;;;161.50;47.80;;;;;;;-0.17;100.00;100692.95;214203;1292;139806;-81
2024/03/09 01:17:08;;;;;;;97.20;36.30;;;;;;;-0.17;100.00;100686.08;213677;1294;140150;-83
2024/03/09 01:22:08;;;;;;;143.40;43.70;;;;;;;-0.17;100.00;100681.21;213554;1289;139706;-83
2024/03/09 01:27:09;;;;;;;138.90;43.40;;;;;;;-0.17;100.00;100677.86;213229;1289;141512;-83
2024/03/09 01:32:11;;;;;;;118.40;39.30;;;;;;;-0.18;100.00;100680.65;214036;1289;96612;-82
2024/03/09 01:37:13;;;;;;;233.40;64.00;;;;;;;-0.20;100.00;100679.39;213354;1291;141004;-82
2024/03/09 01:42:18;;;;;;;407.30;93.20;;;;;;;-0.22;100.00;100679.63;213698;1292;139795;-83
2024/03/09 01:47:21;;;;;;;201.20;53.60;;;;;;;-0.26;100.00;100676.31;212989;1294;141036;-83
2024/03/09 01:52:25;;;;;;;148.20;46.40;;;;;;;-0.29;100.00;100674.85;213588;1294;140995;-83
2024/03/09 01:57:26;;;;;;;108.20;36.40;;;;;;;-0.32;100.00;100673.66;213176;1291;141354;-83
2024/03/09 02:02:27;;;;;;;110.20;39.10;;;;;;;-0.35;100.00;100671.08;213471;1294;139933;-83
2024/03/09 02:07:27;;;;;;;106.00;37.20;;;;;;;-0.40;100.00;100667.96;215323;1291;141998;-83
2024/03/09 02:12:28;;;;;;;117.80;42.00;;;;;;;-0.44;100.00;100669.35;213569;1289;139792;-83
2024/03/09 02:17:30;;;;;;;92.20;36.40;;;;;;;-0.46;100.00;100665.23;213174;1288;140918;-83
2024/03/09 02:22:31;;;;;;;88.80;35.30;;;;;;;-0.51;100.00;100658.77;213570;1292;139635;-84
2024/03/09 02:27:31;;;;;;;102.60;36.30;;;;;;;-0.55;100.00;100651.16;213359;1288;140684;-83
2024/03/09 02:32:32;;;;;;;549.10;150.20;;;;;;;-0.58;100.00;100648.58;213897;1288;140431;-82
2024/03/09 02:37:33;;;;;;;520.20;174.30;;;;;;;-0.60;100.00;100643.38;213533;1289;141213;-83
2024/03/09 02:42:38;;;;;;;281.20;79.70;;;;;;;-0.63;100.00;100632.40;213788;1289;140426;-83
2024/03/09 02:47:41;;;;;;;138.00;47.80;;;;;;;-0.65;100.00;100629.48;213245;1289;140682;-83
2024/03/09 02:52:41;;;;;;;94.90;37.50;;;;;;;-0.65;100.00;100623.63;213909;1289;139481;-83
2024/03/09 02:57:42;;;;;;;84.70;34.10;;;;;;;-0.63;100.00;100618.30;213550;1288;142836;-84
2024/03/09 03:08:04;;;;;;;68.70;29.50;;;;;;;-0.59;100.00;100607.52;215309;1292;139540;-84
2024/03/09 03:13:04;;;;;;;65.90;29.30;;;;;;;-0.58;100.00;100601.33;214503;1289;139310;-83
2024/03/09 03:18:08;;;;;;;75.60;29.80;;;;;;;-0.56;100.00;100607.67;213856;1294;140321;-83
2024/03/09 03:23:08;;;;;;;77.60;31.00;;;;;;;-0.57;100.00;100610.17;214363;1289;139178;-83
2024/03/09 03:28:09;;;;;;;60.60;27.90;;;;;;;-0.59;100.00;100607.13;213829;1292;140759;-82
2024/03/09 03:33:10;;;;;;;69.10;27.70;;;;;;;-0.60;100.00;100599.75;213786;1291;139702;-84
2024/03/09 03:38:10;;;;;;;64.20;28.00;;;;;;;-0.59;100.00;100595.91;213215;1289;141179;-83
2024/03/09 03:43:11;;;;;;;67.80;29.60;;;;;;;-0.60;100.00;100594.07;213525;1289;138999;-83
2024/03/09 03:48:15;;;;;;;69.80;32.70;;;;;;;-0.63;100.00;100586.41;213175;1292;141925;-83
2024/03/09 03:53:15;;;;;;;73.00;30.90;;;;;;;-0.64;100.00;100586.44;213737;1292;139875;-83
2024/03/09 03:58:17;;;;;;;209.80;71.00;;;;;;;-0.66;100.00;100583.06;213463;1288;140725;-84
2024/03/09 04:03:20;;;;;;;158.00;52.30;;;;;;;-0.68;100.00;100578.92;213684;1294;139218;-83
2024/03/09 04:08:21;;;;;;;100.30;36.30;;;;;;;-0.71;100.00;100573.52;215221;1288;140280;-84
2024/03/09 04:13:23;;;;;;;114.70;38.90;;;;;;;-0.71;100.00;100575.21;213869;1292;139516;-83
2024/03/09 04:18:26;;;;;;;85.60;33.20;;;;;;;-0.72;100.00;100570.63;213147;1289;141752;-83
2024/03/09 04:23:27;;;;;;;99.20;36.50;;;;;;;-0.73;100.00;100566.26;213762;1292;140387;-83
2024/03/09 04:28:27;;;;;;;83.80;33.10;;;;;;;-0.73;100.00;100562.98;213190;1293;140506;-83
2024/03/09 04:33:28;;;;;;;81.40;30.40;;;;;;;-0.75;100.00;100564.90;213692;1289;139807;-84
2024/03/09 04:38:31;;;;;;;69.80;30.00;;;;;;;-0.75;100.00;100561.02;213148;1289;140722;-84
2024/03/09 04:43:32;;;;;;;66.50;29.80;;;;;;;-0.76;100.00;100558.71;213580;1292;105764;-84
2024/03/09 04:48:33;;;;;;;90.00;34.50;;;;;;;-0.76;100.00;100556.94;212848;1292;141444;-83
2024/03/09 04:53:33;;;;;;;80.90;32.20;;;;;;;-0.76;100.00;100554.39;213418;1290;139522;-83
2024/03/09 04:58:33;;;;;;;94.40;35.00;;;;;;;-0.74;100.00;100549.59;213271;1292;140775;-83
2024/03/09 05:03:35;;;;;;;91.40;32.50;;;;;;;-0.73;100.00;100551.64;213409;1290;139601;-84
2024/03/09 05:08:36;;;;;;;84.30;34.40;;;;;;;-0.73;100.00;100550.98;214891;1289;141049;-84
2024/03/09 05:13:37;;;;;;;105.80;35.50;;;;;;;-0.72;100.00;100545.68;213738;1290;103788;-84
2024/03/09 05:18:37;;;;;;;107.90;39.40;;;;;;;-0.68;100.00;100543.37;213024;1292;141257;-84
2024/03/09 05:23:39;;;;;;;89.50;32.70;;;;;;;-0.64;100.00;100535.57;213444;1292;139237;-84
2024/03/09 05:28:40;;;;;;;80.60;32.70;;;;;;;-0.58;100.00;100538.14;213091;1290;140025;-85
2024/03/09 05:33:40;;;;;;;76.70;31.90;;;;;;;-0.46;100.00;100530.71;213451;1292;139521;-84
2024/03/09 05:38:44;;;;;;;89.10;31.90;;;;;;;-0.36;100.00;100536.39;213099;1289;140379;-83
2024/03/09 05:43:46;;;;;;;103.50;36.60;;;;;;;-0.33;100.00;100534.64;213687;1292;104599;-83
2024/03/09 05:48:47;;;;;;;90.20;35.80;;;;;;;-0.28;100.00;100536.60;213194;1290;140075;-83
2024/03/09 05:53:49;;;;;;;93.70;37.10;;;;;;;-0.22;100.00;100535.39;213384;1295;140027;-82
2024/03/09 05:58:49;;;;;;;82.40;33.80;;;;;;;-0.17;100.00;100537.16;212993;1290;140644;-83
2024/03/09 06:03:51;;;;;;;461.40;124.30;;;;;;;-0.13;100.00;100533.41;213630;1290;139054;-83
2024/03/09 06:08:52;;;;;;;142.70;46.80;;;;;;;-0.06;100.00;100530.01;214231;1289;141252;-81
2024/03/09 06:13:53;;;;;;;116.70;42.70;;;;;;;0.01;100.00;100530.23;214364;1292;97532;-82
2024/03/09 06:18:53;;;;;;;99.10;38.30;;;;;;;0.07;100.00;100532.91;213176;1289;139767;-83
2024/03/09 06:23:54;;;;;;;107.60;40.40;;;;;;;0.15;100.00;100523.34;213704;1298;139111;-84
2024/03/09 06:28:54;;;;;;;90.10;39.10;;;;;;;0.22;100.00;100524.43;213071;1290;140313;-83
2024/03/09 06:33:54;;;;;;;79.80;34.90;;;;;;;0.29;100.00;100523.19;213478;1289;139230;-82
2024/03/09 06:38:55;;;;;;;95.90;36.70;;;;;;;0.39;100.00;100524.41;213029;1292;140564;-83
2024/03/09 06:43:56;;;;;;;86.90;38.40;;;;;;;0.48;100.00;100520.94;213612;1292;104595;-82
2024/03/09 06:48:57;;;;;;;86.20;35.00;;;;;;;0.61;100.00;100521.64;212981;1289;140732;-83
2024/03/09 06:53:59;;;;;;;76.30;32.40;;;;;;;0.75;100.00;100518.83;213523;1289;138719;-83
2024/03/09 06:58:59;;;;;;;72.70;30.60;;;;;;;0.91;100.00;100521.08;213245;1288;140652;-83
2024/03/09 07:04:03;;;;;;;207.80;61.00;;;;;;;1.07;100.00;100526.52;213565;1294;139599;-82
2024/03/09 07:09:09;;;;;;;94.70;37.40;;;;;;;1.19;100.00;100524.39;213598;1289;140377;-83
2024/03/09 07:14:10;;;;;;;;;;;;;;;1.34;100.00;100527.98;215430;1289;110142;-82
2024/03/09 07:19:10;;;;;;;95.50;38.30;;;;;;;1.53;100.00;100522.07;213692;1289;126172;-83
2024/03/09 07:24:10;;;;;;;90.00;36.20;;;;;;;1.68;100.00;100521.89;213855;1289;138911;-83
2024/03/09 07:29:11;;;;;;;80.50;37.20;;;;;;;1.85;100.00;100523.55;212991;1290;140108;-83
2024/03/09 07:34:11;;;;;;;93.50;40.10;;;;;;;2.06;100.00;100530.64;213722;1294;139066;-83
2024/03/09 07:39:15;;;;;;;94.50;40.00;;;;;;;2.23;100.00;100523.65;213277;1288;141158;-83
2024/03/09 07:44:20;;;;;;;82.60;36.20;;;;;;;2.37;100.00;100517.58;214082;1292;110035;-84
2024/03/09 07:49:20;;;;;;;251.60;80.40;;;;;;;2.54;100.00;100510.02;213422;1292;140828;-83
2024/03/09 07:54:22;;;;;;;105.10;42.90;;;;;;;2.73;100.00;100510.80;213674;1292;138689;-84
2024/03/09 07:59:23;;;;;;;71.60;30.10;;;;;;;2.94;100.00;100505.85;213401;1289;140255;-83
2024/03/09 08:04:24;;;;;;;78.20;37.40;;;;;;;3.15;100.00;100504.02;214154;1288;138690;-84
2024/03/09 08:09:24;;;;;;;81.90;35.60;;;;;;;3.30;100.00;100496.28;213775;1289;139788;-83
2024/03/09 08:14:28;;;;;;;72.90;35.70;;;;;;;3.55;100.00;100496.35;215211;1290;96601;-85
2024/03/09 08:19:29;;;;;;;78.30;36.10;;;;;;;3.76;100.00;100493.53;213308;1294;139748;-82
2024/03/09 08:24:29;;;;;;;72.80;33.70;;;;;;;4.00;100.00;100491.05;213441;1293;139405;-83
2024/03/09 08:29:31;;;;;;;69.40;33.60;;;;;;;4.20;100.00;100491.95;213485;1288;242995;-85
2024/03/09 08:34:32;;;;;;;69.50;33.40;;;;;;;4.40;100.00;100487.02;214013;1288;139278;-83
2024/03/09 08:39:33;;;;;;;103.10;43.40;;;;;;;4.63;100.00;100486.08;213351;1294;139869;-85
2024/03/09 08:44:36;;;;;;;69.20;32.90;;;;;;;4.88;100.00;100477.44;213973;1291;138874;-85
2024/03/09 08:49:39;;;;;;;65.00;32.30;;;;;;;5.16;100.00;100472.02;213774;1289;140505;-85
2024/03/09 08:54:41;;;;;;;66.10;31.90;;;;;;;5.46;99.64;100473.84;214179;1288;139152;-84
2024/03/09 08:59:42;;;;;;;67.50;34.60;;;;;;;5.73;98.68;100474.34;213727;1292;140793;-85
2024/03/09 09:04:43;;;;;;;59.70;31.30;;;;;;;6.12;98.33;100473.52;213688;1294;138999;-85
2024/03/09 09:09:43;;;;;;;58.30;29.90;;;;;;;6.50;98.40;100470.77;213449;1288;141554;-85
2024/03/09 09:14:44;;;;;;;64.50;33.10;;;;;;;6.94;95.97;100461.34;215002;1289;138493;-84
2024/03/09 09:19:44;;;;;;;73.90;37.10;;;;;;;7.29;93.30;100459.64;213661;1289;140183;-85
2024/03/09 09:24:45;;;;;;;74.20;36.60;;;;;;;7.61;91.14;100449.70;213858;1288;138355;-86
2024/03/09 09:29:45;;;;;;;131.00;60.00;;;;;;;8.17;92.26;100447.88;214200;1289;139990;-83
2024/03/09 09:34:45;;;;;;;73.10;38.10;;;;;;;8.90;91.60;100444.41;214210;1289;139105;-84
2024/03/09 09:39:49;;;;;;;56.30;32.10;;;;;;;9.61;89.21;100446.84;213939;1289;139430;-84
2024/03/09 09:44:51;;;;;;;56.50;31.50;;;;;;;10.04;84.55;100446.06;213747;1288;138983;-84
2024/03/09 09:49:53;;;;;;;62.00;33.10;;;;;;;10.30;83.93;100439.43;213358;1289;140054;-84
2024/03/09 09:54:58;;;;;;;63.00;32.70;;;;;;;10.81;80.76;100438.02;213582;1289;138983;-86
2024/03/09 09:59:59;;;;;;;57.20;32.60;;;;;;;10.99;79.83;100431.67;213040;1289;141551;-85
2024/03/09 10:05:01;;;;;;;54.30;31.80;;;;;;;11.32;76.87;100418.19;213408;1288;139063;-85
2024/03/09 10:10:14;;;;;;;48.10;29.80;;;;;;;11.44;74.16;100413.64;213375;1288;140849;-84
2024/03/09 10:15:14;;;;;;;66.50;43.60;;;;;;;11.62;73.45;100407.89;215044;1288;139034;-85
2024/03/09 10:20:16;;;;;;;45.50;27.00;;;;;;;11.97;72.94;100399.04;213095;1292;140264;-85
2024/03/09 10:25:27;;;;;;;43.40;26.80;;;;;;;12.17;70.88;100397.00;213507;1289;138074;-85
2024/03/09 10:30:29;;;;;;;54.50;31.10;;;;;;;12.29;69.89;100386.71;213253;1289;142357;-86
2024/03/09 10:35:29;;;;;;;51.40;31.30;;;;;;;12.26;69.01;100383.48;213586;1292;138419;-85
2024/03/09 10:40:29;;;;;;;50.90;28.50;;;;;;;12.45;69.44;100379.90;213003;1289;140853;-86
2024/03/09 10:45:30;;;;;;;63.60;31.80;;;;;;;12.66;68.83;100374.27;213613;1292;138119;-86
2024/03/09 10:50:40;;;;;;;50.30;28.10;;;;;;;12.75;67.64;100372.23;213433;1289;139858;-85
2024/03/09 10:56:05;;;;;;;48.40;25.90;;;;;;;13.01;68.30;100359.16;213590;1289;96633;-86
2024/03/09 11:01:08;;;;;;;50.10;27.30;;;;;;;13.06;67.14;100352.78;212973;1289;139078;-86
2024/03/09 11:06:11;;;;;;;57.50;27.40;;;;;;;13.27;66.07;100353.56;213642;1289;138081;-86
2024/03/09 11:11:13;;;;;;;41.30;24.60;;;;;;;13.28;65.70;100341.79;214113;1289;141117;-85
2024/03/09 11:16:19;;;;;;;51.10;25.30;;;;;;;13.17;65.40;100336.52;214635;1289;138433;-86
2024/03/09 11:21:24;;;;;;;51.70;26.30;;;;;;;13.14;65.12;100324.99;213227;1288;242797;-86
2024/03/09 11:26:24;;;;;;;36.60;20.20;;;;;;;13.20;65.99;100318.66;213228;1292;139791;-85
2024/03/09 11:31:30;;;;;;;44.20;23.50;;;;;;;13.31;65.26;100313.28;213442;1291;138052;-86
2024/03/09 11:36:46;;;;;;;56.70;26.10;;;;;;;13.22;64.86;100303.73;212924;1288;140087;-86
2024/03/09 11:41:49;;;;;;;23.10;13.10;;;;;;;13.16;64.19;100296.73;213453;1288;139111;-85
2024/03/09 11:46:50;;;;;;;21.10;13.10;;;;;;;13.09;63.25;100299.26;213265;1288;139307;-85
2024/03/09 11:51:50;;;;;;;33.90;14.40;;;;;;;12.90;62.80;100292.38;213536;1288;138141;-86
2024/03/09 11:56:51;;;;;;;23.70;13.60;;;;;;;12.92;64.11;100281.96;213197;1289;139109;-84
2024/03/09 12:01:59;;;;;;;22.80;13.90;;;;;;;12.89;63.17;100280.39;213615;1288;108396;-84
2024/03/09 12:07:01;;;;;;;31.20;16.60;;;;;;;12.57;62.67;100275.10;212965;1288;139563;-86
2024/03/09 12:12:12;;;;;;;29.20;17.40;;;;;;;12.45;64.29;100269.09;214816;1288;138666;-85
2024/03/09 12:17:13;;;;;;;67.40;25.90;;;;;;;12.46;63.98;100258.92;213440;1289;140235;-85
2024/03/09 12:22:14;;;;;;;29.20;17.50;;;;;;;12.18;63.84;100245.80;213422;1291;138301;-86
2024/03/09 12:27:14;;;;;;;34.90;18.40;;;;;;;11.99;64.42;100243.40;213095;1290;139658;-87
2024/03/09 12:32:15;;;;;;;35.70;20.30;;;;;;;11.92;65.06;100243.94;213860;1288;97096;-86
2024/03/09 12:37:24;;;;;;;38.80;21.10;;;;;;;12.00;66.00;100244.51;213181;1292;139015;-85
2024/03/09 12:42:26;;;;;;;38.70;21.40;;;;;;;11.97;65.54;100231.27;213479;1289;138001;-86
2024/03/09 12:47:28;;;;;;;33.90;20.30;;;;;;;11.79;64.86;100228.61;213120;1288;139553;-85
2024/03/09 12:52:29;;;;;;;35.70;21.10;;;;;;;11.62;66.05;100223.42;213408;1288;138623;-86
2024/03/09 12:57:33;;;;;;;42.20;22.30;;;;;;;11.48;66.39;100218.23;212886;1288;139782;-87
2024/03/09 13:02:34;;;;;;;37.30;20.30;;;;;;;11.44;66.73;100218.46;213533;1292;97587;-83
2024/03/09 13:07:39;;;;;;;47.90;23.20;;;;;;;11.39;67.09;100214.02;213435;1289;140324;-85
2024/03/09 13:12:41;;;;;;;37.60;20.90;;;;;;;11.32;66.82;100212.35;214989;1288;138104;-85
2024/03/09 13:17:43;;;;;;;46.10;23.70;;;;;;;11.26;67.44;100209.80;213214;1288;140047;-84
2024/03/09 13:22:45;;;;;;;42.80;23.00;;;;;;;11.15;67.09;100214.61;213629;1288;138450;-85
2024/03/09 13:27:45;;;;;;;36.00;20.70;;;;;;;11.11;68.61;100211.76;212796;1292;139023;-86
2024/03/09 13:32:47;;;;;;;37.10;21.00;;;;;;;11.24;68.43;100198.45;213395;1288;138191;-85
2024/03/09 13:37:49;;;;;;;39.10;21.30;;;;;;;11.33;67.76;100192.98;213202;1292;140254;-85
2024/03/09 13:42:51;;;;;;;38.20;21.80;;;;;;;11.23;67.74;100190.48;213554;1288;138518;-85
2024/03/09 13:47:53;;;;;;;40.40;21.60;;;;;;;11.27;68.01;100184.92;212864;1289;141854;-85
2024/03/09 13:52:53;;;;;;;39.90;21.80;;;;;;;11.22;67.44;100176.17;213492;1288;138363;-86
2024/03/09 13:57:54;;;;;;;96.80;38.00;;;;;;;11.08;67.50;100168.16;212955;1288;140174;-85
2024/03/09 14:02:59;;;;;;;44.30;24.20;;;;;;;10.94;68.51;100168.16;213423;1288;138163;-84
2024/03/09 14:07:59;;;;;;;46.80;23.90;;;;;;;10.86;68.68;100157.58;213541;1288;140163;-86
2024/03/09 14:13:00;;;;;;;51.60;25.70;;;;;;;10.79;68.94;100153.85;215200;1288;138140;-87
2024/03/09 14:18:02;;;;;;;46.80;24.40;;;;;;;10.77;69.67;100150.69;213225;1289;139938;-86
2024/03/09 14:23:03;;;;;;;53.10;25.20;;;;;;;10.77;69.94;100136.52;213670;1293;138272;-87
2024/03/09 14:28:06;;;;;;;41.90;22.00;;;;;;;10.72;69.91;100136.81;213551;1289;139921;-85
2024/03/09 14:33:12;;;;;;;80.60;36.10;;;;;;;10.61;70.47;100133.84;213833;1292;138133;-85
2024/03/09 14:38:13;;;;;;;244.00;95.50;;;;;;;10.55;70.55;100128.30;213502;1288;139821;-85
2024/03/09 14:43:16;;;;;;;140.30;50.30;;;;;;;10.48;71.17;100124.79;213518;1288;139216;-85
2024/03/09 14:48:19;;;;;;;96.60;37.70;;;;;;;10.45;71.58;100114.09;213238;1289;140669;-86
2024/03/09 14:53:19;;;;;;;57.70;25.60;;;;;;;10.45;72.25;100104.65;213693;1293;138901;-85
2024/03/09 14:58:20;;;;;;;55.00;25.30;;;;;;;10.43;71.86;100097.80;213162;1294;140362;-87
2024/03/09 15:08:22;;;;;;;53.90;24.10;;;;;;;10.28;72.55;100093.39;213047;1288;139718;-86
2024/03/09 15:13:30;;;;;;;61.40;26.00;;;;;;;10.22;72.20;100094.52;214581;1289;138419;-85
2024/03/09 15:18:31;;;;;;;58.20;25.50;;;;;;;10.13;72.49;100085.19;213408;1293;139088;-86
2024/03/09 15:23:32;;;;;;;48.00;24.10;;;;;;;10.01;73.05;100083.50;213511;1288;138283;-86
2024/03/09 15:28:32;;;;;;;60.10;28.10;;;;;;;9.95;73.79;100082.89;213124;1292;139833;-86
2024/03/09 15:33:36;;;;;;;57.80;24.70;;;;;;;9.88;74.26;100079.85;213705;1288;138121;-87
2024/03/09 15:38:40;;;;;;;48.20;23.60;;;;;;;9.85;74.69;100077.31;213565;1288;140000;-86
2024/03/09 15:43:40;;;;;;;49.60;23.10;;;;;;;9.83;75.45;100076.35;213835;1288;107904;-85
2024/03/09 15:48:41;;;;;;;55.80;25.50;;;;;;;9.81;75.74;100073.52;213111;1289;140505;-86
2024/03/09 15:53:41;;;;;;;187.70;66.90;;;;;;;9.76;75.23;100068.52;213866;1292;138971;-85
2024/03/09 15:58:43;;;;;;;116.10;39.70;;;;;;;9.72;75.70;100061.97;213398;1289;139369;-86
2024/03/09 16:03:43;;;;;;;63.20;27.10;;;;;;;9.68;75.60;100058.09;213803;1294;138106;-86
2024/03/09 16:08:44;;;;;;;53.90;24.70;;;;;;;9.64;76.13;100061.58;213367;1289;139868;-87
2024/03/09 16:13:49;;;;;;;48.00;23.20;;;;;;;9.60;76.29;100061.64;215709;1288;96690;-85
2024/03/09 16:18:49;;;;;;;45.80;24.00;;;;;;;9.56;76.08;100061.91;213210;1288;139725;-86
2024/03/09 16:23:53;;;;;;;40.60;21.50;;;;;;;9.54;76.57;100061.10;213990;1289;137955;-85
2024/03/09 16:28:54;;;;;;;43.50;22.60;;;;;;;9.51;77.55;100059.51;213392;1288;140535;-86
2024/03/09 16:33:54;;;;;;;42.00;22.10;;;;;;;9.48;77.90;100059.02;213901;1288;137932;-86
2024/03/09 16:38:56;;;;;;;44.10;22.00;;;;;;;9.44;77.34;100058.73;213407;1292;139523;-86
2024/03/09 16:43:56;;;;;;;48.60;24.70;;;;;;;9.41;77.66;100057.52;213934;1289;97814;-86
2024/03/09 16:48:57;;;;;;;46.90;24.70;;;;;;;9.37;77.61;100057.96;213072;1292;140165;-86
2024/03/09 16:53:58;;;;;;;46.10;24.20;;;;;;;9.32;77.90;100060.66;213726;1288;137932;-88
2024/03/09 16:58:58;;;;;;;47.90;24.60;;;;;;;9.29;77.75;100060.70;213162;1288;137944;-87
2024/03/09 17:04:02;;;;;;;45.60;24.70;;;;;;;9.25;78.18;100055.49;213752;1288;137809;-87
2024/03/09 17:09:10;;;;;;;58.00;27.00;;;;;;;9.22;78.46;100051.84;213165;1289;138923;-86
2024/03/09 17:14:17;;;;;;;49.20;23.80;;;;;;;9.18;78.40;100050.46;215516;1288;104180;-87
2024/03/09 17:19:18;;;;;;;105.70;41.30;;;;;;;9.14;78.57;100050.97;213387;1288;139142;-88
2024/03/09 17:24:19;;;;;;;62.00;29.50;;;;;;;9.11;79.12;100050.80;213997;1294;137953;-88
2024/03/09 17:29:20;;;;;;;48.60;25.20;;;;;;;9.08;79.25;100055.45;213333;1289;139082;-89
2024/03/09 17:34:20;;;;;;;45.40;24.90;;;;;;;9.04;79.56;100048.20;213969;1291;137795;-88
2024/03/09 17:39:22;;;;;;;47.10;25.40;;;;;;;9.01;79.61;100050.58;213198;1289;139386;-87
2024/03/09 17:44:24;;;;;;;46.80;25.60;;;;;;;8.96;80.03;100050.38;213872;1288;97821;-86
2024/03/09 17:49:25;;;;;;;49.30;24.70;;;;;;;8.92;80.17;100053.46;213186;1288;140275;-88
2024/03/09 17:54:26;;;;;;;51.60;26.40;;;;;;;8.85;80.87;100049.39;213664;1293;138008;-89
2024/03/09 17:59:26;;;;;;;54.70;28.20;;;;;;;8.79;81.50;100049.94;213018;1292;140274;-88
2024/03/09 18:04:27;;;;;;;49.90;26.50;;;;;;;8.72;82.28;100043.52;213709;1289;138441;-87
2024/03/09 18:09:29;;;;;;;52.00;26.50;;;;;;;8.67;82.49;100038.83;213148;1289;140119;-87
2024/03/09 18:14:29;;;;;;;60.70;30.70;;;;;;;8.60;82.86;100036.15;215643;1288;109908;-88
2024/03/09 18:19:31;;;;;;;54.90;28.90;;;;;;;8.55;83.01;100035.21;213181;1288;139859;-88
2024/03/09 18:24:32;;;;;;;52.90;26.40;;;;;;;8.50;83.13;100031.16;213656;1288;138484;-88
2024/03/09 18:29:33;;;;;;;88.90;43.30;;;;;;;8.44;83.46;100029.98;212844;1289;139573;-88
2024/03/09 18:34:36;;;;;;;118.40;46.70;;;;;;;8.39;83.67;100025.30;213749;1288;138476;-89
2024/03/09 18:39:37;;;;;;;71.70;32.90;;;;;;;8.33;83.72;100027.41;213202;1292;141015;-88
2024/03/09 18:44:39;;;;;;;65.00;31.20;;;;;;;8.28;84.04;100023.27;213630;1289;96765;-87
2024/03/09 18:49:43;;;;;;;66.80;28.90;;;;;;;8.22;84.58;100029.06;213382;1288;140495;-86
2024/03/09 18:54:44;;;;;;;61.70;28.90;;;;;;;8.19;84.75;100036.76;213780;1288;138718;-86
2024/03/09 18:59:45;;;;;;;56.30;30.10;;;;;;;8.16;85.15;100038.73;213239;1292;139884;-86
2024/03/09 19:04:46;;;;;;;61.70;33.00;;;;;;;8.14;85.24;100033.77;213837;1289;138693;-87
2024/03/09 19:09:47;;;;;;;58.70;29.10;;;;;;;8.12;85.51;100027.70;213200;1291;139577;-86
2024/03/09 19:14:47;;;;;;;60.50;29.80;;;;;;;8.11;85.82;100027.70;215476;1288;138078;-85
2024/03/09 19:19:48;;;;;;;56.40;28.60;;;;;;;8.09;85.81;100020.85;213223;1288;140325;-87
2024/03/09 19:24:48;;;;;;;64.00;32.00;;;;;;;8.09;85.76;100026.88;213560;1294;138511;-86
2024/03/09 19:29:49;;;;;;;61.60;33.80;;;;;;;8.08;85.94;100024.29;213170;1288;140454;-84
2024/03/09 19:34:49;;;;;;;57.40;29.90;;;;;;;8.04;86.29;100026.66;213682;1292;139289;-87
2024/03/09 19:39:50;;;;;;;77.50;38.40;;;;;;;8.02;86.20;100024.83;213090;1288;139993;-86
2024/03/09 19:44:50;;;;;;;79.50;36.70;;;;;;;7.99;86.20;100015.47;213565;1289;139259;-86
2024/03/09 19:49:51;;;;;;;58.60;30.10;;;;;;;7.96;86.52;100007.73;213079;1289;139701;-86
2024/03/09 19:54:51;;;;;;;64.30;30.80;;;;;;;7.93;86.65;100007.62;213731;1288;139122;-87
2024/03/09 19:59:52;;;;;;;57.40;30.10;;;;;;;7.90;86.53;100008.77;213154;1294;139249;-83
2024/03/09 20:04:53;;;;;;;62.50;31.10;;;;;;;7.88;86.64;100005.90;213598;1289;138474;-86
2024/03/09 20:09:54;;;;;;;63.00;31.30;;;;;;;7.86;86.85;100002.83;213120;1288;139931;-87
2024/03/09 20:14:55;;;;;;;59.70;28.70;;;;;;;7.85;86.95;100006.17;215671;1288;138124;-85
2024/03/09 20:19:56;;;;;;;59.60;29.60;;;;;;;7.81;86.90;100005.02;214143;1288;139673;-87
2024/03/09 20:24:57;;;;;;;83.70;37.20;;;;;;;7.78;87.08;100004.89;213896;1289;139573;-87
2024/03/09 20:29:57;;;;;;;94.20;41.50;;;;;;;7.75;87.15;100000.92;213169;1292;161994;-87
2024/03/09 20:34:58;;;;;;;117.40;44.30;;;;;;;7.68;87.28;99990.02;213785;1292;138553;-86
2024/03/09 20:39:58;;;;;;;97.00;36.60;;;;;;;7.62;87.55;99993.52;213336;1292;139287;-86
2024/03/09 20:44:59;;;;;;;121.30;45.30;;;;;;;7.56;87.56;99989.83;213594;1295;138356;-86
2024/03/09 20:50:00;;;;;;;130.30;49.20;;;;;;;7.48;87.99;99989.14;213265;1289;139845;-86
2024/03/09 20:55:01;;;;;;;575.10;215.60;;;;;;;7.39;88.21;99992.21;213642;1293;140268;-86
2024/03/09 21:00:09;;;;;;;131.80;50.80;;;;;;;7.29;88.46;99989.70;213214;1294;140251;-86
2024/03/09 21:05:14;;;;;;;91.50;37.30;;;;;;;7.19;88.99;99989.05;213816;1289;138724;-86
2024/03/09 21:10:14;;;;;;;78.00;34.70;;;;;;;7.10;89.56;99988.36;213229;1295;139869;-86
2024/03/09 21:15:15;;;;;;;80.10;36.50;;;;;;;7.00;90.07;99990.91;215760;1289;137549;-88
2024/03/09 21:20:16;;;;;;;95.50;39.10;;;;;;;6.93;90.21;99990.38;213672;1288;138979;-86
2024/03/09 21:25:16;;;;;;;75.30;32.90;;;;;;;6.84;90.66;99989.44;213680;1294;138207;-86
2024/03/09 21:30:19;;;;;;;470.10;163.00;;;;;;;6.73;91.16;99991.72;213244;1288;138821;-88
2024/03/09 21:35:21;;;;;;;90.60;38.00;;;;;;;6.64;91.60;99985.45;213799;1292;138758;-86
2024/03/09 21:40:25;;;;;;;91.60;37.40;;;;;;;6.56;91.93;99977.63;213090;1289;139639;-87
2024/03/09 21:45:26;;;;;;;78.50;34.60;;;;;;;6.46;92.64;99979.15;213567;1294;138411;-87
2024/03/09 21:50:28;;;;;;;71.30;30.00;;;;;;;6.36;93.27;99977.30;213382;1292;139795;-85
2024/03/09 21:55:29;;;;;;;64.10;30.50;;;;;;;6.28;93.90;99978.95;213490;1292;139024;-86
2024/03/09 22:00:29;;;;;;;69.60;32.60;;;;;;;6.19;94.58;99973.61;213095;1288;140666;-88
2024/03/09 22:05:30;;;;;;;65.60;31.50;;;;;;;6.11;95.21;99970.46;213694;1288;138975;-86
2024/03/09 22:10:30;;;;;;;64.10;30.80;;;;;;;6.05;95.70;99965.02;213145;1292;139678;-85
2024/03/09 22:15:31;;;;;;;71.40;32.30;;;;;;;5.98;96.26;99959.50;215439;1288;138703;-88
2024/03/09 22:20:32;;;;;;;67.40;30.80;;;;;;;5.93;96.90;99965.38;213908;1288;139728;-86
2024/03/09 22:25:32;;;;;;;68.10;31.20;;;;;;;5.86;96.86;99957.75;213743;1289;138520;-86
2024/03/09 22:30:34;;;;;;;61.00;28.60;;;;;;;5.80;97.64;99953.63;213187;1295;139526;-86